Time;durP1;ratioP1;P1;durP2;ratioP2;P2;SDS_P1;SDS_P2;PMS_P1;PMS_P2;Temp;Humidity;BMP_temperature;BMP_pressure;BME280_temperature;BME280_humidity;BME280_pressure;Samples;Min_cycle;Max_cycle;Signal;HPM_P1;HPM_P2
2022/01/21 00:01:41;;;;;;;14.87;5.32;;;;;;;3.48;56.70;100205.16;4449927;32;34278;-63
2022/01/21 00:04:10;;;;;;;15.75;5.43;;;;;;;3.42;56.55;100196.97;4459737;32;33838;-62
2022/01/21 00:06:38;;;;;;;10.77;4.28;;;;;;;3.11;57.30;100191.94;4459282;32;33529;-62
2022/01/21 00:09:06;;;;;;;9.88;3.55;;;;;;;3.08;57.02;100191.72;4463576;32;34081;-63
2022/01/21 00:11:36;;;;;;;9.07;3.05;;;;;;;2.07;59.65;100203.06;4456014;32;34341;-63
2022/01/21 00:14:03;;;;;;;9.35;3.50;;;;;;;2.23;59.49;100206.91;4443931;32;34905;-62
2022/01/21 00:16:31;;;;;;;16.55;5.70;;;;;;;1.85;61.52;100219.87;4454444;32;33653;-62
2022/01/21 00:19:04;;;;;;;11.48;3.92;;;;;;;2.85;57.89;100211.22;4468086;32;33878;-62
2022/01/21 00:32:32;;;;;;;4.78;1.65;;;;;;;0.56;64.33;100220.53;4459684;32;33696;-62
2022/01/21 00:35:00;;;;;;;6.78;1.58;;;;;;;0.93;63.02;100213.63;4446697;32;34017;-62
2022/01/21 00:37:29;;;;;;;5.62;1.50;;;;;;;1.30;61.89;100196.47;4466500;32;34503;-62
2022/01/21 00:39:59;;;;;;;5.40;1.65;;;;;;;0.69;63.09;100198.69;4459386;32;34196;-62
2022/01/21 00:45:12;;;;;;;5.95;1.20;;;;;;;0.47;64.50;100194.19;4469280;32;33727;-62
2022/01/21 00:47:41;;;;;;;7.03;1.35;;;;;;;0.43;64.71;100201.44;4462332;32;34818;-62
2022/01/21 00:50:09;;;;;;;4.50;1.30;;;;;;;1.27;62.60;100206.41;4464644;32;34110;-62
2022/01/21 00:52:36;;;;;;;5.30;2.05;;;;;;;0.73;63.74;100203.28;4448367;32;32092;-62
2022/01/21 00:55:06;;;;;;;6.30;1.85;;;;;;;0.70;63.73;100192.84;4462993;32;34697;-62
2022/01/21 00:57:33;;;;;;;4.55;1.40;;;;;;;0.81;63.55;100197.22;4465693;32;34711;-63
2022/01/21 01:00:01;;;;;;;3.85;1.20;;;;;;;0.43;64.70;100220.16;4465421;32;34062;-62
2022/01/21 01:02:29;;;;;;;5.18;1.58;;;;;;;0.36;65.31;100221.25;4464248;32;33458;-62
2022/01/21 01:04:56;;;;;;;7.87;1.52;;;;;;;0.26;65.40;100222.81;4450828;32;32210;-62
2022/01/21 01:07:25;;;;;;;3.62;1.20;;;;;;;0.86;63.86;100230.81;4449301;32;34024;-63
2022/01/21 01:09:55;;;;;;;3.70;0.88;;;;;;;0.31;65.42;100221.56;4455414;32;34847;-62
2022/01/21 01:12:51;;;;;;;4.43;0.95;;;;;;;0.56;64.57;100230.72;4460531;32;33387;-62
2022/01/21 01:20:52;;;;;;;4.72;0.77;;;;;;;0.52;64.46;100223.56;4455823;32;34666;-61
2022/01/21 01:23:49;;;;;;;4.28;0.73;;;;;;;0.71;64.58;100226.09;4446182;32;32034;-62
2022/01/21 01:29:04;;;;;;;3.78;1.08;;;;;;;0.10;66.76;100236.69;4457537;32;33927;-62
2022/01/21 01:31:32;;;;;;;3.85;1.15;;;;;;;-0.24;67.28;100228.44;4442861;32;34381;-61
2022/01/21 01:34:01;;;;;;;2.40;0.73;;;;;;;0.54;65.37;100237.34;4455227;32;34047;-63
2022/01/21 01:36:29;;;;;;;2.28;0.70;;;;;;;0.64;64.54;100227.97;4454713;32;33933;-62
2022/01/21 01:41:35;;;;;;;4.55;0.82;;;;;;;0.28;66.70;100236.59;4460845;32;33028;-62
2022/01/21 01:49:37;;;;;;;3.45;1.02;;;;;;;-0.18;68.36;100247.59;4457076;32;33806;-62
2022/01/21 01:52:10;;;;;;;2.80;0.90;;;;;;;-0.43;68.96;100258.00;4447697;32;33749;-62
2022/01/21 01:54:41;;;;;;;6.10;0.80;;;;;;;-0.21;68.58;100254.19;4465471;32;34392;-62
2022/01/21 01:57:09;;;;;;;3.22;1.00;;;;;;;-0.36;69.58;100270.56;4463574;32;33478;-62
2022/01/21 01:59:37;;;;;;;6.65;0.90;;;;;;;-0.45;70.61;100269.69;4441785;32;33819;-63
2022/01/21 02:02:09;;;;;;;4.55;0.75;;;;;;;-0.17;69.56;100264.66;4455911;32;34757;-62
2022/01/21 02:04:38;;;;;;;3.42;0.70;;;;;;;0.05;69.41;100258.28;4457980;32;34104;-62
2022/01/21 02:07:06;;;;;;;5.37;0.93;;;;;;;0.32;68.48;100269.25;4452425;32;33399;-62
2022/01/21 02:09:34;;;;;;;2.72;0.60;;;;;;;-0.04;69.72;100267.59;4456921;32;33853;-61
2022/01/21 02:12:03;;;;;;;4.72;0.70;;;;;;;0.53;68.11;100258.47;4453156;32;34248;-62
2022/01/21 02:14:37;;;;;;;2.97;0.57;;;;;;;0.40;68.50;100263.19;4429525;32;33395;-62
2022/01/21 02:22:47;;;;;;;2.40;0.68;;;;;;;0.64;67.84;100263.66;4456639;32;34146;-62
2022/01/21 02:25:21;;;;;;;4.40;1.23;;;;;;;0.84;67.21;100263.81;4453862;32;33403;-63
2022/01/21 02:27:51;;;;;;;1.85;0.80;;;;;;;0.67;67.33;100241.00;4452797;32;33838;-61
2022/01/21 02:30:21;;;;;;;3.72;0.90;;;;;;;-0.23;71.10;100240.44;4460186;32;33180;-62
2022/01/21 02:32:51;;;;;;;4.50;1.00;;;;;;;0.02;70.89;100247.84;4459731;32;36060;-61
2022/01/21 02:35:20;;;;;;;2.72;1.02;;;;;;;0.18;69.60;100253.56;4443435;32;34570;-62
2022/01/21 02:37:48;;;;;;;3.87;1.25;;;;;;;0.28;69.97;100246.78;4456678;32;34124;-62
2022/01/21 02:40:17;;;;;;;6.22;1.77;;;;;;;0.06;69.96;100247.34;4456170;32;33951;-62
2022/01/21 02:42:44;;;;;;;5.32;1.60;;;;;;;-0.06;70.43;100243.66;4456105;32;34773;-62
2022/01/21 02:45:14;;;;;;;3.12;0.80;;;;;;;-0.21;70.96;100223.66;4462394;32;34273;-63
2022/01/21 02:47:44;;;;;;;2.87;0.90;;;;;;;0.07;70.08;100225.31;4445617;32;33076;-62
2022/01/21 02:50:12;;;;;;;6.03;1.48;;;;;;;-0.20;70.79;100235.59;4455761;32;34100;-62
2022/01/21 02:52:54;;;;;;;3.33;1.10;;;;;;;-0.33;71.07;100247.97;4442099;32;34200;-61
2022/01/21 02:55:24;;;;;;;6.55;1.60;;;;;;;-0.41;71.18;100251.41;4456603;32;33736;-62
2022/01/21 02:57:52;;;;;;;5.62;1.23;;;;;;;-0.54;72.17;100251.91;4453999;32;34720;-62
2022/01/21 03:00:20;;;;;;;3.62;1.02;;;;;;;-0.60;72.09;100242.03;4463035;32;34133;-62
2022/01/21 03:02:48;;;;;;;6.70;1.37;;;;;;;-0.56;72.22;100237.22;4463338;32;34651;-61
2022/01/21 03:05:16;;;;;;;4.30;1.70;;;;;;;-0.40;71.50;100246.47;4463381;32;33536;-62
2022/01/21 03:07:45;;;;;;;5.03;1.30;;;;;;;-0.50;72.07;100253.06;4453481;32;75619;-62
2022/01/21 03:10:14;;;;;;;6.32;1.10;;;;;;;-0.33;71.54;100263.25;4457198;32;33970;-62
2022/01/21 03:12:42;;;;;;;6.07;1.90;;;;;;;-0.12;70.93;100254.16;4438027;32;34907;-62
2022/01/21 03:15:09;;;;;;;4.53;1.30;;;;;;;-0.57;72.03;100260.91;4441790;32;34093;-62
2022/01/21 03:17:37;;;;;;;4.22;1.33;;;;;;;-0.58;72.36;100254.00;4440494;32;33782;-62
2022/01/21 03:20:06;;;;;;;4.03;1.35;;;;;;;-0.74;72.92;100262.69;4453937;32;33519;-63
2022/01/21 03:22:33;;;;;;;4.10;1.37;;;;;;;-0.61;72.77;100254.59;4467044;32;34842;-62
2022/01/21 03:25:02;;;;;;;3.20;1.23;;;;;;;-0.70;72.60;100269.88;4459922;32;34328;-62
2022/01/21 03:27:29;;;;;;;3.97;1.95;;;;;;;-0.65;72.55;100278.84;4458608;32;33285;-62
2022/01/21 03:29:58;;;;;;;3.35;1.30;;;;;;;-0.35;71.70;100279.97;4458860;32;33945;-61
2022/01/21 03:32:26;;;;;;;4.22;1.10;;;;;;;-0.57;72.03;100277.03;4450602;32;34151;-62
2022/01/21 03:34:54;;;;;;;4.53;1.30;;;;;;;-0.71;72.46;100288.44;4463581;32;33666;-62
2022/01/21 03:37:22;;;;;;;2.58;0.65;;;;;;;-0.75;72.64;100281.28;4457197;32;34060;-62
2022/01/21 03:39:50;;;;;;;2.67;1.00;;;;;;;-0.39;71.11;100277.91;4442077;32;32406;-62
2022/01/21 03:42:17;;;;;;;3.67;1.42;;;;;;;-0.33;70.52;100283.59;4459272;32;33599;-62
2022/01/21 03:44:45;;;;;;;5.72;1.12;;;;;;;-0.66;70.99;100294.87;4464338;32;34176;-62
2022/01/21 03:47:12;;;;;;;5.68;1.37;;;;;;;-0.69;70.98;100286.94;4454949;32;33842;-63
2022/01/21 03:49:53;;;;;;;3.92;1.02;;;;;;;-0.82;70.87;100282.31;4459359;32;34923;-63
2022/01/21 03:52:21;;;;;;;4.30;0.82;;;;;;;-0.54;70.44;100271.34;4463770;32;33638;-61
2022/01/21 03:54:49;;;;;;;1.85;0.88;;;;;;;-0.54;70.53;100276.44;4445217;32;32788;-62
2022/01/21 03:57:16;;;;;;;2.75;1.00;;;;;;;0.07;68.19;100277.16;4446214;32;33721;-63
2022/01/21 03:59:44;;;;;;;3.47;0.62;;;;;;;-0.29;68.08;100265.31;4440361;32;33706;-62
2022/01/21 04:02:12;;;;;;;2.85;0.93;;;;;;;0.10;66.60;100276.56;4452050;32;33859;-62
2022/01/21 04:04:39;;;;;;;1.73;0.77;;;;;;;-0.17;67.27;100274.84;4457667;32;33614;-61
2022/01/21 04:07:07;;;;;;;4.72;1.25;;;;;;;0.01;66.29;100271.50;4448380;32;34656;-62
2022/01/21 04:09:35;;;;;;;5.75;1.08;;;;;;;-0.67;67.20;100274.37;4452098;32;33883;-62
2022/01/21 04:12:04;;;;;;;2.58;0.80;;;;;;;-0.41;66.13;100270.16;4448511;32;34312;-61
2022/01/21 04:14:34;;;;;;;4.22;1.20;;;;;;;-0.67;67.17;100270.19;4432783;32;31976;-62
2022/01/21 04:17:02;;;;;;;4.07;0.88;;;;;;;-0.50;65.61;100264.16;4468708;32;33896;-62
2022/01/21 04:19:30;;;;;;;4.95;1.20;;;;;;;-0.70;65.82;100259.69;4461347;32;33822;-62
2022/01/21 04:21:57;;;;;;;5.45;0.85;;;;;;;-0.82;66.86;100269.59;4455141;32;34308;-62
2022/01/21 04:24:25;;;;;;;3.53;1.15;;;;;;;-0.91;66.97;100262.72;4464041;32;33671;-61
2022/01/21 04:26:53;;;;;;;4.75;1.42;;;;;;;-0.68;65.83;100258.19;4468291;32;34637;-62
2022/01/21 04:29:20;;;;;;;4.60;1.33;;;;;;;-0.73;65.92;100287.41;4469235;32;33957;-62
2022/01/21 04:31:48;;;;;;;4.80;1.12;;;;;;;-0.96;65.91;100284.28;4460022;32;34138;-62
2022/01/21 04:34:16;;;;;;;3.75;1.00;;;;;;;-0.94;66.41;100303.12;4455014;32;33519;-62
2022/01/21 04:36:44;;;;;;;3.28;0.95;;;;;;;-0.73;65.76;100289.06;4462768;32;33473;-63
2022/01/21 04:39:22;;;;;;;3.65;1.00;;;;;;;-0.54;64.93;100301.87;4469238;32;33688;-62
2022/01/21 04:49:41;;;;;;;3.92;1.15;;;;;;;-0.67;64.82;100305.78;4457799;32;33939;-61
2022/01/21 04:52:09;;;;;;;2.28;0.98;;;;;;;-1.15;66.30;100305.34;4455124;32;34606;-62
2022/01/21 04:54:37;;;;;;;4.40;1.08;;;;;;;-0.93;65.20;100320.16;4442649;32;33364;-61
2022/01/21 04:57:06;;;;;;;2.20;0.90;;;;;;;-0.83;64.97;100328.84;4465331;32;33941;-61
2022/01/21 04:59:36;;;;;;;5.25;1.25;;;;;;;-0.83;64.88;100322.84;4458859;32;33559;-62
2022/01/21 05:02:03;;;;;;;3.55;1.20;;;;;;;-0.93;65.30;100320.16;4444305;32;34786;-62
2022/01/21 05:04:31;;;;;;;6.90;1.30;;;;;;;-0.65;64.59;100329.75;4445367;32;31696;-62
2022/01/21 05:07:02;;;;;;;2.10;0.98;;;;;;;-0.99;65.52;100328.06;4447478;32;34584;-62
2022/01/21 05:09:31;;;;;;;5.03;1.02;;;;;;;-0.58;64.25;100330.31;4465140;32;33642;-62
2022/01/21 05:12:07;;;;;;;4.78;1.40;;;;;;;-0.70;64.79;100330.94;4456569;32;34303;-61
2022/01/21 05:17:25;;;;;;;7.62;1.58;;;;;;;-0.86;64.65;100325.09;4437365;32;34652;-62
2022/01/21 05:19:53;;;;;;;2.33;0.88;;;;;;;-0.82;64.33;100340.81;4455160;32;34699;-62
2022/01/21 05:22:21;;;;;;;3.30;1.08;;;;;;;-0.60;63.44;100343.81;4467504;32;34136;-62
2022/01/21 05:24:49;;;;;;;6.10;1.20;;;;;;;-0.88;64.07;100344.41;4459142;32;33515;-62
2022/01/21 05:27:17;;;;;;;5.68;1.92;;;;;;;-0.77;63.87;100358.16;4466819;32;34628;-62
2022/01/21 05:29:45;;;;;;;2.25;0.90;;;;;;;-0.78;63.38;100352.19;4433677;32;32836;-63
2022/01/21 05:32:13;;;;;;;3.62;0.82;;;;;;;-0.77;63.00;100363.25;4455581;32;33907;-63
2022/01/21 05:34:41;;;;;;;3.55;1.12;;;;;;;-0.92;63.45;100375.38;4456477;32;34277;-63
2022/01/21 05:37:09;;;;;;;2.35;0.95;;;;;;;-0.67;63.01;100364.31;4457721;32;34706;-63
2022/01/21 05:39:37;;;;;;;5.28;1.65;;;;;;;-0.54;62.81;100362.94;4448202;32;33911;-63
2022/01/21 05:42:07;;;;;;;4.97;1.40;;;;;;;-0.62;62.98;100365.66;4466662;32;34096;-63
2022/01/21 05:47:05;;;;;;;5.30;2.30;;;;;;;-0.75;63.25;100352.50;4462074;32;34163;-63
2022/01/21 05:49:35;;;;;;;5.65;1.12;;;;;;;-0.77;63.49;100374.34;4461836;32;32968;-63
2022/01/21 05:52:11;;;;;;;3.33;1.15;;;;;;;-0.81;63.64;100367.16;4465382;32;34209;-62
2022/01/21 05:54:39;;;;;;;4.05;1.00;;;;;;;-0.81;63.52;100382.44;4440846;32;33684;-63
2022/01/21 05:57:11;;;;;;;4.40;1.35;;;;;;;-0.87;63.88;100371.63;4459590;32;33617;-64
2022/01/21 05:59:40;;;;;;;4.25;1.37;;;;;;;-0.73;63.34;100381.53;4458481;32;34051;-63
2022/01/21 06:02:10;;;;;;;3.08;1.40;;;;;;;-0.93;63.83;100389.72;4447358;32;34262;-63
2022/01/21 06:04:40;;;;;;;8.77;2.10;;;;;;;-1.05;64.40;100397.03;4447176;32;31482;-63
2022/01/21 06:07:07;;;;;;;3.70;0.95;;;;;;;-0.56;63.12;100410.25;4449626;32;34728;-63
2022/01/21 06:09:37;;;;;;;6.22;1.40;;;;;;;-0.78;63.71;100417.44;4459563;32;33949;-62
2022/01/21 06:12:05;;;;;;;3.03;1.10;;;;;;;-0.92;64.13;100423.69;4457663;32;34143;-63
2022/01/21 06:14:33;;;;;;;3.78;1.52;;;;;;;-0.75;63.37;100418.62;4460658;32;33607;-62
2022/01/21 06:17:00;;;;;;;2.37;1.00;;;;;;;-0.79;63.75;100436.87;4451910;32;34602;-63
2022/01/21 06:19:28;;;;;;;7.18;1.12;;;;;;;-0.92;63.83;100438.94;4458221;32;34079;-62
2022/01/21 06:21:55;;;;;;;4.15;1.40;;;;;;;-0.84;63.72;100458.41;4454753;32;33759;-63
2022/01/21 06:24:23;;;;;;;4.43;1.55;;;;;;;-1.07;64.19;100464.63;4462560;32;33461;-63
2022/01/21 06:26:51;;;;;;;5.75;1.25;;;;;;;-0.82;63.65;100465.44;4454039;32;34876;-62
2022/01/21 06:29:18;;;;;;;6.37;1.62;;;;;;;-0.29;61.98;100480.78;4463627;32;34242;-61
2022/01/21 06:31:46;;;;;;;7.40;1.85;;;;;;;-0.67;63.55;100478.81;4454097;32;34023;-62
2022/01/21 06:34:14;;;;;;;6.53;1.90;;;;;;;-1.64;66.01;100491.88;4457849;32;33467;-61
2022/01/21 06:36:41;;;;;;;5.10;1.40;;;;;;;-0.75;63.74;100486.41;4456631;32;34328;-61
2022/01/21 06:39:09;;;;;;;5.87;1.42;;;;;;;-1.14;65.11;100500.34;4439853;32;35125;-61
2022/01/21 06:41:36;;;;;;;4.03;1.45;;;;;;;-0.88;63.89;100502.09;4444882;32;34111;-62
2022/01/21 06:44:05;;;;;;;9.38;1.52;;;;;;;-0.84;63.61;100500.00;4466796;32;34194;-62
2022/01/21 06:46:33;;;;;;;4.87;1.90;;;;;;;-0.87;63.76;100498.78;4439118;32;31986;-62
2022/01/21 06:49:01;;;;;;;5.00;1.40;;;;;;;-0.71;63.54;100504.69;4456636;32;34606;-62
2022/01/21 06:51:28;;;;;;;3.45;1.20;;;;;;;-1.21;65.30;100510.63;4457222;32;33949;-62
2022/01/21 06:53:56;;;;;;;6.55;2.28;;;;;;;-1.50;65.77;100505.09;4459425;32;34226;-63
2022/01/21 06:56:23;;;;;;;8.52;1.45;;;;;;;-1.52;65.58;100506.59;4462611;32;34751;-62
2022/01/21 06:58:51;;;;;;;7.00;1.83;;;;;;;-1.47;65.46;100520.66;4459337;32;34805;-62
2022/01/21 07:01:18;;;;;;;5.62;1.90;;;;;;;-1.11;64.59;100528.63;4456134;32;33993;-61
2022/01/21 07:03:46;;;;;;;3.95;1.35;;;;;;;-1.19;65.03;100537.12;4458567;32;34391;-63
2022/01/21 07:06:13;;;;;;;3.80;1.67;;;;;;;-1.70;65.83;100530.97;4458895;32;34693;-63
2022/01/21 07:08:41;;;;;;;6.65;1.70;;;;;;;-1.15;64.15;100531.59;4463049;32;33959;-61
2022/01/21 07:11:08;;;;;;;5.68;1.20;;;;;;;-1.19;64.00;100547.28;4458685;32;34849;-63
2022/01/21 07:13:36;;;;;;;6.72;1.90;;;;;;;-1.00;63.73;100550.97;4460072;32;34375;-62
2022/01/21 07:16:03;;;;;;;10.30;1.33;;;;;;;-1.49;64.62;100558.59;4460828;32;33485;-62
2022/01/21 07:18:31;;;;;;;3.65;1.15;;;;;;;-1.09;63.59;100557.62;4455669;32;33683;-62
2022/01/21 07:20:59;;;;;;;5.37;1.40;;;;;;;-0.97;63.37;100558.00;4462250;32;34100;-62
2022/01/21 07:23:26;;;;;;;4.72;1.00;;;;;;;-0.70;62.07;100564.09;4447749;32;33656;-63
2022/01/21 07:25:57;;;;;;;3.37;1.37;;;;;;;-0.54;61.48;100567.47;4461219;32;34213;-62
2022/01/21 07:28:24;;;;;;;5.43;1.65;;;;;;;-1.23;62.48;100573.13;4465017;32;33655;-63
2022/01/21 07:30:52;;;;;;;4.35;1.60;;;;;;;-1.08;62.10;100569.63;4464645;32;34640;-64
2022/01/21 07:33:20;;;;;;;3.85;1.02;;;;;;;-1.20;63.13;100578.50;4456291;32;33431;-64
2022/01/21 07:35:48;;;;;;;4.45;0.93;;;;;;;-1.01;62.54;100566.94;4465458;32;33904;-63
2022/01/21 07:38:15;;;;;;;4.57;1.12;;;;;;;-0.79;61.58;100559.00;4468563;32;34769;-64
2022/01/21 07:40:43;;;;;;;5.55;1.50;;;;;;;-1.15;62.73;100563.75;4458182;32;33806;-62
2022/01/21 07:43:10;;;;;;;17.85;7.60;;;;;;;-1.50;63.38;100556.81;4461278;32;33094;-63
2022/01/21 07:45:38;;;;;;;6.07;1.17;;;;;;;-0.60;61.26;100556.63;4465562;32;33623;-63
2022/01/21 07:48:06;;;;;;;7.12;2.83;;;;;;;-1.29;62.20;100547.09;4469340;32;34439;-63
2022/01/21 07:50:35;;;;;;;11.25;3.40;;;;;;;-0.94;61.14;100537.09;4446567;32;33868;-63
2022/01/21 07:53:03;;;;;;;22.70;9.98;;;;;;;-1.11;61.16;100542.97;4465762;32;34448;-62
2022/01/21 07:55:30;;;;;;;8.55;3.60;;;;;;;-0.87;61.05;100524.22;4463071;32;33611;-63
2022/01/21 07:58:00;;;;;;;10.68;1.92;;;;;;;-0.76;60.62;100533.84;4455821;32;33682;-61
2022/01/21 08:00:28;;;;;;;8.63;2.10;;;;;;;-0.47;59.39;100546.03;4462802;32;33936;-64
2022/01/21 08:02:56;;;;;;;6.20;1.55;;;;;;;-0.50;58.45;100548.28;4456579;32;33602;-62
2022/01/21 08:05:28;;;;;;;7.68;1.75;;;;;;;-0.49;58.63;100560.25;4454994;32;34481;-61
2022/01/21 08:07:56;;;;;;;4.00;1.48;;;;;;;-1.07;59.71;100551.06;4465166;32;34706;-62
2022/01/21 08:10:23;;;;;;;4.70;1.30;;;;;;;-0.64;59.42;100554.53;4457450;32;33955;-63
2022/01/21 08:12:50;;;;;;;4.00;1.15;;;;;;;-0.76;58.69;100541.47;4462664;32;33070;-63
2022/01/21 08:15:18;;;;;;;5.20;1.67;;;;;;;-0.75;58.95;100565.25;4460282;32;34147;-64
2022/01/21 08:17:46;;;;;;;2.15;0.70;;;;;;;-0.89;58.38;100557.16;4467634;32;34171;-64
2022/01/21 08:20:13;;;;;;;3.95;1.40;;;;;;;-0.93;58.66;100544.84;4451284;32;33910;-64
2022/01/21 08:22:41;;;;;;;2.65;1.15;;;;;;;-0.95;58.61;100540.34;4459333;32;34288;-61
2022/01/21 08:25:08;;;;;;;4.70;1.20;;;;;;;-0.70;57.99;100529.38;4461807;32;33503;-62
2022/01/21 08:27:36;;;;;;;2.97;0.90;;;;;;;-1.01;59.08;100521.16;4445490;32;33785;-64
2022/01/21 08:30:06;;;;;;;3.72;0.95;;;;;;;-0.98;59.50;100519.72;4462926;32;33958;-64
2022/01/21 08:32:34;;;;;;;2.58;0.80;;;;;;;-1.01;59.38;100521.16;4462934;32;34242;-62
2022/01/21 08:35:01;;;;;;;4.37;1.20;;;;;;;-1.02;59.47;100524.47;4457962;32;33785;-63
2022/01/21 08:37:29;;;;;;;4.12;1.30;;;;;;;-1.02;59.21;100523.59;4459331;32;33941;-62
2022/01/21 08:39:56;;;;;;;5.28;1.15;;;;;;;-0.96;58.72;100524.22;4461690;32;35127;-62
2022/01/21 08:42:24;;;;;;;2.12;0.82;;;;;;;-0.84;58.84;100527.09;4457687;32;34357;-62
2022/01/21 08:44:51;;;;;;;3.08;0.98;;;;;;;-0.89;59.01;100546.06;4461104;32;34241;-63
2022/01/21 08:47:21;;;;;;;7.43;2.00;;;;;;;-1.00;58.71;100529.72;4460121;32;33789;-62
2022/01/21 08:49:49;;;;;;;2.87;1.15;;;;;;;-0.75;58.03;100535.66;4466444;32;34540;-63
2022/01/21 08:52:24;;;;;;;8.30;1.80;;;;;;;-0.91;58.28;100537.38;4458558;32;33697;-62
2022/01/21 08:54:51;;;;;;;5.12;1.25;;;;;;;-0.89;58.33;100567.34;4458280;32;33377;-64
2022/01/21 08:57:19;;;;;;;8.93;2.03;;;;;;;-0.79;57.75;100569.16;4455446;32;34633;-63
2022/01/21 08:59:49;;;;;;;5.60;2.03;;;;;;;-0.52;57.34;100578.69;4460026;32;33867;-64
2022/01/21 09:02:18;;;;;;;3.45;1.62;;;;;;;-0.32;56.60;100578.12;4465387;32;34361;-64
2022/01/21 09:04:46;;;;;;;2.40;0.93;;;;;;;-0.39;55.89;100593.53;4457757;32;33531;-63
2022/01/21 09:07:18;;;;;;;6.65;2.12;;;;;;;-0.75;56.14;100591.62;4462872;32;34804;-63
2022/01/21 09:09:46;;;;;;;5.65;1.77;;;;;;;-0.49;56.11;100601.00;4464288;32;33966;-63
2022/01/21 09:12:13;;;;;;;6.53;2.40;;;;;;;-0.06;54.98;100602.72;4469866;32;33402;-62
2022/01/21 09:14:41;;;;;;;2.92;1.40;;;;;;;-0.16;55.78;100598.38;4462556;32;34625;-63
2022/01/21 09:17:08;;;;;;;6.10;1.77;;;;;;;-0.05;54.89;100597.78;4457906;32;34629;-64
2022/01/21 09:19:36;;;;;;;10.90;1.98;;;;;;;-0.37;56.05;100592.03;4458953;32;34189;-63
2022/01/21 09:22:04;;;;;;;6.95;1.65;;;;;;;-0.20;55.15;100594.62;4443634;32;32524;-62
2022/01/21 09:24:32;;;;;;;4.68;1.55;;;;;;;-0.23;55.09;100591.78;4459399;32;34821;-63
2022/01/21 09:27:02;;;;;;;4.50;1.85;;;;;;;-0.54;56.00;100597.06;4461391;32;33929;-63
2022/01/21 09:29:30;;;;;;;11.95;2.55;;;;;;;-0.34;54.92;100606.72;4456942;32;33830;-62
2022/01/21 09:31:58;;;;;;;7.35;2.42;;;;;;;-0.17;55.18;100610.94;4443873;32;33604;-62
2022/01/21 09:34:27;;;;;;;9.15;2.17;;;;;;;0.24;54.36;100617.59;4459396;32;33809;-62
2022/01/21 09:36:56;;;;;;;2.28;1.00;;;;;;;-0.21;54.10;100610.66;4456797;32;33940;-63
2022/01/21 09:39:24;;;;;;;6.43;2.55;;;;;;;-0.22;54.68;100619.03;4428152;32;33327;-63
2022/01/21 09:41:57;;;;;;;7.10;2.03;;;;;;;0.08;54.51;100610.09;4456959;32;34058;-64
2022/01/21 09:44:27;;;;;;;5.43;1.10;;;;;;;0.30;53.90;100612.22;4458773;32;34345;-63
2022/01/21 09:46:57;;;;;;;3.40;0.90;;;;;;;0.08;54.00;100602.47;4447859;32;32496;-61
2022/01/21 09:49:26;;;;;;;4.87;1.37;;;;;;;-0.36;56.10;100614.22;4458016;32;34461;-62
2022/01/21 09:52:02;;;;;;;6.90;2.22;;;;;;;0.00;55.01;100626.28;4460163;32;33529;-62
2022/01/21 09:54:33;;;;;;;6.12;1.85;;;;;;;0.08;55.09;100615.19;4444750;32;34803;-61
2022/01/21 09:57:01;;;;;;;4.43;1.30;;;;;;;0.09;55.11;100609.34;4456224;32;34591;-63
2022/01/21 09:59:30;;;;;;;7.57;1.67;;;;;;;0.18;55.41;100623.00;4458362;32;34267;-63
2022/01/21 10:02:01;;;;;;;2.00;0.82;;;;;;;0.22;55.08;100614.00;4447304;32;34227;-61
2022/01/21 10:04:41;;;;;;;6.65;1.95;;;;;;;0.18;54.82;100617.00;4459522;32;33316;-62
2022/01/21 10:07:16;;;;;;;4.35;1.87;;;;;;;0.36;54.65;100610.25;4461570;32;33634;-64
2022/01/21 10:09:45;;;;;;;3.70;1.77;;;;;;;0.22;54.87;100603.81;4459189;32;34828;-63
2022/01/21 10:12:14;;;;;;;3.78;1.60;;;;;;;0.37;54.98;100619.72;4459426;32;34429;-63
2022/01/21 10:14:42;;;;;;;4.90;1.73;;;;;;;0.45;54.56;100613.72;4457232;32;34761;-62
2022/01/21 10:17:14;;;;;;;3.37;1.60;;;;;;;0.51;54.30;100609.22;4456339;32;32660;-62
2022/01/21 10:19:48;;;;;;;7.87;1.70;;;;;;;0.55;54.05;100600.22;4465052;32;34615;-63
2022/01/21 10:22:19;;;;;;;3.53;1.05;;;;;;;0.38;54.84;100606.22;4442812;32;32870;-64
2022/01/21 10:24:59;;;;;;;4.62;1.58;;;;;;;0.57;54.71;100608.91;4458074;32;34597;-65
2022/01/21 10:27:29;;;;;;;6.05;1.40;;;;;;;0.48;54.87;100614.00;4461849;32;34552;-64
2022/01/21 10:29:57;;;;;;;5.45;1.48;;;;;;;0.34;56.14;100606.66;4461289;32;34186;-63
2022/01/21 10:32:35;;;;;;;5.37;1.98;;;;;;;0.63;54.99;100603.50;4454473;32;33430;-63
2022/01/21 10:35:24;;;;;;;5.85;1.50;;;;;;;0.78;54.13;100600.78;4441012;32;34817;-62
2022/01/21 10:37:55;;;;;;;5.10;1.65;;;;;;;0.29;56.06;100600.22;4456952;32;34678;-62
2022/01/21 10:40:33;;;;;;;5.90;1.45;;;;;;;0.46;55.69;100600.22;4462909;32;34801;-62
2022/01/21 10:43:12;;;;;;;4.97;1.50;;;;;;;0.57;54.98;100609.81;4460562;32;33624;-62
2022/01/21 10:45:57;;;;;;;5.05;1.17;;;;;;;0.66;55.05;100614.00;4461521;32;34526;-63
2022/01/21 10:48:27;;;;;;;4.20;0.98;;;;;;;0.68;55.49;100612.50;4467512;32;33775;-64
2022/01/21 10:51:14;;;;;;;4.53;1.65;;;;;;;0.76;55.30;100609.03;4460961;32;34644;-63
2022/01/21 10:53:45;;;;;;;5.40;1.60;;;;;;;0.50;55.78;100617.63;4456371;32;33519;-62
2022/01/21 10:56:17;;;;;;;5.50;1.60;;;;;;;0.64;55.25;100612.94;4463152;32;32976;-61
2022/01/21 10:58:53;;;;;;;4.70;1.33;;;;;;;0.61;55.42;100620.31;4451736;32;34654;-63
2022/01/21 11:01:25;;;;;;;6.82;1.62;;;;;;;0.96;55.08;100627.13;4463888;32;33946;-63
2022/01/21 11:04:00;;;;;;;4.97;1.70;;;;;;;0.81;55.16;100625.66;4451176;32;33337;-62
2022/01/21 11:06:37;;;;;;;4.50;1.67;;;;;;;0.49;56.22;100626.00;4463638;32;33905;-63
2022/01/21 11:09:15;;;;;;;3.87;1.90;;;;;;;0.91;54.97;100613.06;4460719;32;34053;-63
2022/01/21 11:11:45;;;;;;;8.55;1.80;;;;;;;0.63;55.72;100611.16;4444795;32;34180;-64
2022/01/21 11:14:19;;;;;;;6.18;2.22;;;;;;;0.82;55.73;100609.63;4449473;32;33702;-62
2022/01/21 11:16:50;;;;;;;5.20;2.25;;;;;;;0.97;55.77;100613.66;4448081;32;34663;-62
2022/01/21 11:19:37;;;;;;;3.62;1.33;;;;;;;1.07;54.79;100599.22;4466186;32;32212;-62
2022/01/21 11:22:05;;;;;;;7.70;2.03;;;;;;;0.68;55.36;100592.13;4461177;32;34047;-63
2022/01/21 11:24:32;;;;;;;9.27;2.25;;;;;;;0.65;56.02;100591.81;4464156;32;33456;-61
2022/01/21 11:27:13;;;;;;;7.32;1.50;;;;;;;0.24;57.23;100583.59;4459626;32;33913;-62
2022/01/21 11:29:42;;;;;;;8.10;3.12;;;;;;;0.85;55.46;100591.16;4443084;32;33964;-60
2022/01/21 11:32:11;;;;;;;9.48;2.60;;;;;;;0.33;56.18;100587.03;4468058;32;34262;-62
2022/01/21 11:34:39;;;;;;;6.05;1.73;;;;;;;0.49;56.47;100577.56;4456808;32;34266;-61
2022/01/21 11:37:09;;;;;;;5.97;1.65;;;;;;;0.56;56.00;100562.13;4458724;32;33384;-62
2022/01/21 11:39:37;;;;;;;7.93;2.55;;;;;;;0.88;54.71;100556.66;4435935;32;34545;-62
2022/01/21 11:42:07;;;;;;;7.32;3.00;;;;;;;1.11;54.11;100545.16;4459702;32;34879;-63
2022/01/21 11:44:38;;;;;;;7.93;1.83;;;;;;;0.77;54.94;100537.78;4442709;32;33664;-62
2022/01/21 11:47:28;;;;;;;6.00;1.15;;;;;;;0.70;54.71;100525.19;4449180;32;33842;-63
2022/01/21 11:49:59;;;;;;;3.47;0.98;;;;;;;0.59;54.63;100519.06;4444948;32;34666;-64
2022/01/21 11:52:26;;;;;;;2.10;1.02;;;;;;;0.79;54.60;100530.25;4445239;32;34619;-62
2022/01/21 11:54:54;;;;;;;5.07;1.40;;;;;;;0.76;54.17;100499.38;4461156;32;32514;-62
2022/01/21 11:57:30;;;;;;;11.10;1.83;;;;;;;0.81;54.01;100481.94;4461722;32;33369;-62
2022/01/21 12:00:05;;;;;;;3.70;1.95;;;;;;;0.91;53.57;100480.44;4442342;32;32415;-61
2022/01/21 12:02:34;;;;;;;;;;;;;;;0.96;53.22;100466.44;4456030;32;33977;-61
2022/01/21 12:05:10;;;;;;;6.32;1.75;;;;;;;0.86;53.78;100470.53;4460031;32;33947;-61
2022/01/21 12:07:44;;;;;;;4.37;1.40;;;;;;;0.89;53.77;100474.28;4449865;32;33663;-61
2022/01/21 12:10:20;;;;;;;3.58;0.90;;;;;;;1.14;53.11;100476.53;4446152;32;33706;-61
2022/01/21 12:13:00;;;;;;;4.10;1.40;;;;;;;1.12;52.55;100461.13;4440524;32;34264;-61
2022/01/21 12:15:34;;;;;;;8.65;2.40;;;;;;;1.11;52.61;100476.28;4444002;32;33484;-61
2022/01/21 12:20:55;;;;;;;4.60;1.20;;;;;;;1.67;51.47;100465.25;4458183;32;32420;-62
2022/01/21 12:23:25;;;;;;;2.90;1.10;;;;;;;1.21;52.37;100466.16;4465192;32;34117;-62
2022/01/21 12:26:11;;;;;;;3.65;1.15;;;;;;;1.31;52.54;100462.78;4463215;32;33565;-62
2022/01/21 12:28:42;;;;;;;4.53;1.27;;;;;;;1.74;51.61;100467.59;4462784;32;34413;-62
2022/01/21 12:31:12;;;;;;;4.20;0.98;;;;;;;1.97;50.35;100471.34;4445080;32;34122;-63
2022/01/21 12:34:14;;;;;;;3.87;1.10;;;;;;;1.61;50.11;100449.38;4453809;32;33806;-64